createdAt,value
2023-02-08T00:00:06.380Z,98.82
2023-02-08T00:02:33.083Z,98.03
2023-02-08T00:04:59.781Z,98.72
2023-02-08T00:07:26.479Z,101.85
2023-02-08T00:09:53.241Z,99.20
2023-02-08T00:12:19.859Z,102.15
2023-02-08T00:14:46.466Z,101.28
2023-02-08T00:17:13.151Z,105.28
2023-02-08T00:19:39.832Z,97.20
2023-02-08T00:22:06.543Z,99.13
2023-02-08T00:24:33.281Z,100.30
2023-02-08T00:26:59.966Z,105.32
2023-02-08T00:29:26.605Z,101.07
2023-02-08T00:31:53.328Z,100.30
2023-02-08T00:34:19.985Z,99.65
2023-02-08T00:36:46.634Z,100.18
2023-02-08T00:39:13.237Z,98.47
2023-02-08T00:41:39.885Z,98.07
2023-02-08T00:44:06.497Z,97.25
2023-02-08T00:46:33.223Z,105.57
2023-02-08T00:48:59.953Z,100.10
2023-02-08T00:51:26.566Z,99.72
2023-02-08T00:53:53.172Z,99.07
2023-02-08T00:56:19.834Z,99.55
2023-02-08T00:58:46.827Z,100.53
2023-02-08T01:01:14.219Z,101.97
2023-02-08T01:03:42.632Z,102.68
2023-02-08T01:06:13.202Z,102.43
2023-02-08T01:08:39.846Z,98.90
2023-02-08T01:11:18.622Z,103.25
2023-02-08T01:13:45.889Z,102.60
2023-02-08T01:16:18.570Z,101.60
2023-02-08T01:18:47.615Z,100.10
2023-02-08T01:21:18.212Z,99.55
2023-02-08T01:23:46.096Z,101.40
2023-02-08T01:26:14.640Z,100.20
2023-02-08T01:28:41.876Z,101.63
2023-02-08T01:31:11.525Z,105.57
2023-02-08T01:33:38.430Z,106.45
2023-02-08T01:36:07.075Z,104.75
2023-02-08T01:38:35.263Z,102.63
2023-02-08T01:41:02.908Z,103.28
2023-02-08T01:43:35.671Z,102.45
2023-02-08T01:46:02.320Z,106.18
2023-02-08T01:48:38.648Z,101.70
2023-02-08T01:51:14.332Z,102.53
2023-02-08T01:53:42.502Z,102.40
2023-02-08T01:56:15.204Z,101.15
2023-02-08T01:58:47.412Z,103.95
2023-02-08T02:01:14.446Z,107.15
2023-02-08T02:03:42.822Z,101.40
2023-02-08T02:06:14.099Z,101.75
2023-02-08T02:08:47.309Z,101.45
2023-02-08T02:11:13.923Z,103.63
2023-02-08T02:13:41.169Z,101.22
2023-02-08T02:16:07.793Z,100.93
2023-02-08T02:18:34.837Z,99.97
2023-02-08T02:21:25.214Z,102.75
2023-02-08T02:24:00.594Z,104.35
2023-02-08T02:26:56.031Z,102.53
2023-02-08T02:29:31.720Z,101.65
2023-02-08T02:32:22.141Z,103.50
2023-02-08T02:34:59.137Z,102.40
2023-02-08T02:37:49.166Z,102.95
2023-02-08T02:40:34.342Z,104.75
2023-02-08T02:43:31.692Z,102.93
2023-02-08T02:46:21.936Z,107.97
2023-02-08T02:48:59.648Z,102.25
2023-02-08T02:51:35.371Z,102.00
2023-02-08T02:54:22.807Z,101.93
2023-02-08T02:56:53.504Z,105.60
2023-02-08T02:59:21.607Z,118.07
2023-02-08T03:01:48.926Z,101.50
2023-02-08T03:04:18.105Z,102.07
2023-02-08T03:07:09.390Z,102.63
2023-02-08T03:09:47.575Z,101.57
2023-02-08T03:12:28.527Z,101.13
2023-02-08T03:15:34.858Z,99.13
2023-02-08T03:18:19.852Z,101.45
2023-02-08T03:20:57.099Z,101.60
2023-02-08T03:23:36.069Z,104.68
2023-02-08T03:26:04.976Z,102.90
2023-02-08T03:28:51.480Z,107.95
2023-02-08T03:31:38.098Z,103.70
2023-02-08T03:34:20.993Z,102.63
2023-02-08T03:37:01.080Z,101.35
2023-02-08T03:39:30.482Z,104.28
2023-02-08T03:42:01.777Z,102.85
2023-02-08T03:44:36.705Z,103.00
2023-02-08T03:47:13.318Z,102.28
2023-02-08T03:49:43.245Z,103.30
2023-02-08T03:52:11.128Z,101.63
2023-02-08T03:54:44.845Z,102.45
2023-02-08T03:57:25.942Z,100.43
2023-02-08T04:00:00.100Z,100.22
2023-02-08T04:02:31.600Z,99.70
2023-02-08T04:05:00.539Z,107.85
2023-02-08T04:07:27.479Z,102.43
2023-02-08T04:09:54.086Z,104.47
2023-02-08T04:12:20.885Z,102.68
2023-02-08T04:14:47.479Z,109.95
2023-02-08T04:17:14.117Z,103.55
2023-02-08T04:19:40.816Z,105.90
2023-02-08T04:22:07.600Z,101.82
2023-02-08T04:24:34.357Z,106.63
2023-02-08T04:27:00.967Z,103.20
2023-02-08T04:29:27.793Z,101.82
2023-02-08T04:31:54.483Z,102.90
2023-02-08T04:34:21.199Z,101.95
2023-02-08T04:36:47.845Z,100.57
2023-02-08T04:39:14.450Z,102.13
2023-02-08T04:41:41.093Z,105.00
2023-02-08T04:44:07.740Z,102.18
2023-02-08T04:46:34.404Z,102.70
2023-02-08T04:49:01.023Z,107.43
2023-02-08T04:51:27.673Z,101.25
2023-02-08T04:53:54.328Z,103.22
2023-02-08T04:56:20.975Z,100.75
2023-02-08T04:58:48.466Z,100.18
2023-02-08T05:01:16.371Z,100.18
2023-02-08T05:03:43.157Z,104.30
2023-02-08T05:06:09.802Z,102.50
2023-02-08T05:08:36.543Z,99.65
2023-02-08T05:11:03.297Z,102.32
2023-02-08T05:13:30.014Z,102.38
2023-02-08T05:15:56.857Z,103.40
2023-02-08T05:18:23.548Z,100.38
2023-02-08T05:21:00.665Z,104.10
2023-02-08T05:23:27.861Z,103.25
2023-02-08T05:25:54.504Z,100.00
2023-02-08T05:28:21.499Z,104.88
2023-02-08T05:30:48.531Z,107.07
2023-02-08T05:33:15.414Z,103.18
2023-02-08T05:35:42.387Z,102.43
2023-02-08T05:38:08.984Z,101.22
2023-02-08T05:40:36.597Z,102.95
2023-02-08T05:43:03.540Z,106.93
2023-02-08T05:45:30.327Z,102.72
2023-02-08T05:47:56.931Z,102.90
2023-02-08T05:50:23.618Z,101.75
2023-02-08T05:52:50.344Z,101.97
2023-02-08T05:55:17.087Z,107.25
2023-02-08T05:57:43.700Z,103.00
2023-02-08T06:00:10.901Z,101.90
2023-02-08T06:02:37.611Z,101.43
2023-02-08T06:05:04.401Z,102.40
2023-02-08T06:07:31.033Z,100.90
2023-02-08T06:09:57.672Z,105.50
2023-02-08T06:12:24.398Z,103.22
2023-02-08T06:14:51.059Z,105.00
2023-02-08T06:17:17.706Z,107.45
2023-02-08T06:19:44.384Z,101.93
2023-02-08T06:22:11.031Z,108.88
2023-02-08T06:24:37.702Z,102.32
2023-02-08T06:27:04.494Z,103.75
2023-02-08T06:29:31.204Z,102.55
2023-02-08T06:31:57.963Z,105.57
2023-02-08T06:34:24.665Z,104.00
2023-02-08T06:36:51.278Z,104.55
2023-02-08T06:39:17.912Z,102.43
2023-02-08T06:41:44.538Z,103.05
2023-02-08T06:44:11.186Z,106.22
2023-02-08T06:46:37.803Z,102.82
2023-02-08T06:49:04.411Z,102.82
2023-02-08T06:51:31.137Z,106.35
2023-02-08T06:53:57.737Z,102.35
2023-02-08T06:56:24.358Z,102.47
2023-02-08T06:58:50.971Z,103.70
2023-02-08T07:01:17.615Z,102.05
2023-02-08T07:03:44.234Z,113.45
2023-02-08T07:06:19.165Z,109.90
2023-02-08T07:08:47.183Z,103.57
2023-02-08T07:11:16.650Z,102.93
2023-02-08T07:13:47.550Z,106.55
2023-02-08T07:16:14.718Z,104.57
2023-02-08T07:18:41.408Z,105.35
2023-02-08T07:21:08.146Z,105.22
2023-02-08T07:23:34.805Z,101.97
2023-02-08T07:26:07.462Z,107.05
2023-02-08T07:28:35.055Z,100.95
2023-02-08T07:31:09.152Z,103.18
2023-02-08T07:33:36.103Z,101.55
2023-02-08T07:36:05.245Z,106.85
2023-02-08T07:38:33.713Z,101.65
2023-02-08T07:41:09.499Z,106.57
2023-02-08T07:43:38.180Z,101.38
2023-02-08T07:46:10.358Z,104.18
2023-02-08T07:48:40.138Z,101.00
2023-02-08T07:51:07.664Z,104.07
2023-02-08T07:53:34.564Z,99.60
2023-02-08T07:56:01.195Z,105.45
2023-02-08T07:58:28.046Z,99.22
2023-02-08T08:00:54.958Z,100.60
2023-02-08T08:03:21.707Z,105.10
2023-02-08T08:05:52.551Z,107.18
2023-02-08T08:08:20.656Z,103.80
2023-02-08T08:10:47.289Z,103.03
2023-02-08T08:13:14.282Z,101.75
2023-02-08T08:15:41.482Z,100.22
2023-02-08T08:18:08.708Z,98.90
2023-02-08T08:20:35.673Z,105.22
2023-02-08T08:23:02.305Z,99.05
2023-02-08T08:25:28.964Z,102.32
2023-02-08T08:27:56.068Z,99.32
2023-02-08T08:30:22.929Z,100.13
2023-02-08T08:32:49.581Z,99.63
2023-02-08T08:35:16.190Z,103.15
2023-02-08T08:37:42.954Z,99.88
2023-02-08T08:40:10.136Z,104.45
2023-02-08T08:42:37.018Z,100.28
2023-02-08T08:45:04.230Z,99.63
2023-02-08T08:47:31.391Z,98.60
2023-02-08T08:49:58.038Z,100.60
2023-02-08T08:52:24.842Z,99.13
2023-02-08T08:54:51.491Z,98.00
2023-02-08T08:57:18.248Z,99.93
2023-02-08T08:59:44.863Z,97.80
2023-02-08T09:02:15.356Z,97.15
2023-02-08T09:04:42.303Z,95.97
2023-02-08T09:07:10.160Z,97.57
2023-02-08T09:09:36.952Z,96.13
2023-02-08T09:12:04.334Z,97.50
2023-02-08T09:14:31.049Z,94.32
2023-02-08T09:16:57.836Z,96.72
2023-02-08T09:19:24.867Z,92.63
2023-02-08T09:21:51.691Z,92.72
2023-02-08T09:24:18.329Z,93.32
2023-02-08T09:26:46.309Z,90.40
2023-02-08T09:29:12.935Z,94.90
2023-02-08T09:31:39.834Z,93.05
2023-02-08T09:34:07.220Z,90.95
2023-02-08T09:36:36.323Z,91.78
2023-02-08T09:39:18.082Z,95.47
2023-02-08T09:42:20.945Z,93.32
2023-02-08T09:44:50.250Z,93.93
2023-02-08T09:47:29.068Z,91.13
2023-02-08T09:50:10.694Z,94.80
2023-02-08T09:52:42.475Z,96.32
2023-02-08T09:55:29.980Z,94.57
2023-02-08T09:58:00.484Z,92.50
2023-02-08T10:00:41.961Z,95.25
2023-02-08T10:03:39.880Z,94.28
2023-02-08T10:06:10.285Z,95.93
2023-02-08T10:08:38.056Z,97.28
2023-02-08T10:11:43.376Z,96.50
2023-02-08T10:14:21.225Z,100.70
2023-02-08T10:17:16.489Z,98.15
2023-02-08T10:20:10.608Z,97.75
2023-02-08T10:22:40.429Z,97.05
2023-02-08T10:25:20.423Z,97.15
2023-02-08T10:27:59.187Z,97.40
2023-02-08T10:30:36.289Z,96.07
2023-02-08T10:33:12.405Z,96.22
2023-02-08T10:35:44.702Z,96.93
2023-02-08T10:38:20.531Z,96.28
2023-02-08T10:40:52.139Z,95.90
2023-02-08T10:43:24.370Z,94.07
2023-02-08T10:46:02.369Z,93.82
2023-02-08T10:48:50.327Z,97.05
2023-02-08T10:51:22.050Z,96.60
2023-02-08T10:53:49.000Z,92.70
2023-02-08T10:56:43.095Z,95.07
2023-02-08T10:59:22.443Z,92.90
2023-02-08T11:01:50.796Z,93.10
2023-02-08T11:04:18.208Z,93.07
2023-02-08T11:06:46.791Z,94.97
2023-02-08T11:09:31.456Z,91.70
2023-02-08T11:12:00.605Z,100.40
2023-02-08T11:14:47.104Z,94.57
2023-02-08T11:17:29.500Z,96.75
2023-02-08T11:19:58.442Z,98.95
2023-02-08T11:22:27.401Z,94.25
2023-02-08T11:25:06.697Z,96.65
2023-02-08T11:27:36.486Z,97.75
2023-02-08T11:30:15.820Z,98.93
2023-02-08T11:32:47.900Z,96.15
2023-02-08T11:35:21.627Z,99.22
2023-02-08T11:37:50.150Z,98.60
2023-02-08T11:40:29.844Z,97.70
2023-02-08T11:42:57.268Z,98.22
2023-02-08T11:45:28.873Z,96.07
2023-02-08T11:47:56.024Z,96.60
2023-02-08T11:50:31.831Z,97.90
2023-02-08T11:53:07.738Z,99.03
2023-02-08T11:55:35.451Z,94.65
2023-02-08T11:58:03.161Z,92.93
2023-02-08T12:00:35.199Z,99.32
2023-02-08T12:03:15.056Z,93.03
2023-02-08T12:06:11.153Z,91.93
2023-02-08T12:08:46.334Z,91.22
2023-02-08T12:11:34.342Z,96.80
2023-02-08T12:14:39.699Z,93.10
2023-02-08T12:17:18.409Z,90.80
2023-02-08T12:19:54.307Z,91.80
2023-02-08T12:22:29.662Z,89.67
2023-02-08T12:25:14.477Z,92.27
2023-02-08T12:27:50.401Z,90.10
2023-02-08T12:30:40.316Z,92.37
2023-02-08T12:33:38.228Z,93.87
2023-02-08T12:36:43.091Z,91.10
2023-02-08T12:40:00.338Z,92.10
2023-02-08T12:42:45.465Z,94.80
2023-02-08T12:45:34.907Z,92.47
2023-02-08T12:48:07.371Z,94.57
2023-02-08T12:50:48.302Z,92.10
2023-02-08T12:53:23.706Z,90.90
2023-02-08T12:55:51.098Z,90.80
2023-02-08T12:58:45.246Z,92.07
2023-02-08T13:01:21.071Z,90.20
2023-02-08T13:04:11.255Z,94.80
2023-02-08T13:06:43.260Z,91.97
2023-02-08T13:09:20.240Z,94.53
2023-02-08T13:12:08.000Z,91.13
2023-02-08T13:14:41.889Z,92.80
2023-02-08T13:17:29.848Z,92.17
2023-02-08T13:20:13.959Z,90.13
2023-02-08T13:22:41.703Z,88.67
2023-02-08T13:25:21.192Z,89.60
2023-02-08T13:27:48.172Z,90.37
2023-02-08T13:30:22.004Z,93.47
2023-02-08T13:32:50.692Z,91.57
2023-02-08T13:35:27.124Z,93.28
2023-02-08T13:38:25.114Z,93.13
2023-02-08T13:41:04.159Z,93.77
2023-02-08T13:43:40.417Z,92.32
2023-02-08T13:46:08.373Z,94.07
2023-02-08T13:48:51.201Z,91.70
2023-02-08T13:51:50.617Z,91.80
2023-02-08T13:54:17.385Z,93.15
2023-02-08T13:56:46.790Z,90.93
2023-02-08T13:59:38.514Z,96.95
2023-02-08T14:02:20.212Z,94.80
2023-02-08T14:04:49.369Z,92.35
2023-02-08T14:07:39.187Z,95.90
2023-02-08T14:10:19.897Z,96.07
2023-02-08T14:12:59.431Z,95.38
2023-02-08T14:15:29.168Z,95.70
2023-02-08T14:17:59.425Z,94.45
2023-02-08T14:20:39.961Z,96.07
2023-02-08T14:23:27.484Z,94.68
2023-02-08T14:25:56.557Z,93.07
2023-02-08T14:28:27.945Z,92.78
2023-02-08T14:30:57.588Z,97.95
2023-02-08T14:33:37.321Z,92.55
2023-02-08T14:36:07.206Z,94.32
2023-02-08T14:38:49.682Z,92.78
2023-02-08T14:41:51.586Z,93.47
2023-02-08T14:44:43.470Z,94.85
2023-02-08T14:47:25.742Z,94.07
2023-02-08T14:50:06.029Z,95.72
2023-02-08T14:52:35.392Z,92.38
2023-02-08T14:55:13.376Z,93.63
2023-02-08T14:57:41.551Z,97.10
2023-02-08T15:00:18.761Z,97.22
2023-02-08T15:02:46.810Z,94.88
2023-02-08T15:05:40.525Z,95.78
2023-02-08T15:08:07.462Z,98.55
2023-02-08T15:10:35.129Z,98.40
2023-02-08T15:13:06.666Z,100.00
2023-02-08T15:15:35.159Z,99.60
2023-02-08T15:18:03.981Z,97.82
2023-02-08T15:20:33.684Z,94.30
2023-02-08T15:23:05.972Z,96.90
2023-02-08T15:25:37.476Z,97.85
2023-02-08T15:28:16.501Z,98.30
2023-02-08T15:30:44.033Z,92.95
2023-02-08T15:33:15.060Z,96.15
2023-02-08T15:35:44.326Z,95.90
2023-02-08T15:38:20.447Z,95.05
2023-02-08T15:41:08.750Z,96.43
2023-02-08T15:43:36.787Z,94.38
2023-02-08T15:46:18.034Z,95.47
2023-02-08T15:48:46.511Z,98.65
2023-02-08T15:51:16.896Z,95.07
2023-02-08T15:53:46.267Z,93.72
2023-02-08T15:56:35.414Z,95.05
2023-02-08T15:59:05.993Z,98.32
2023-02-08T16:01:33.302Z,96.50
2023-02-08T16:04:05.860Z,97.80
2023-02-08T16:06:39.939Z,98.13
2023-02-08T16:09:06.874Z,98.28
2023-02-08T16:11:35.954Z,96.93
2023-02-08T16:14:04.523Z,95.40
2023-02-08T16:16:37.417Z,101.35
2023-02-08T16:19:45.712Z,97.13
2023-02-08T16:22:25.755Z,97.97
2023-02-08T16:24:52.437Z,96.18
2023-02-08T16:27:29.453Z,95.50
2023-02-08T16:29:56.315Z,96.45
2023-02-08T16:32:32.723Z,97.45
2023-02-08T16:35:01.324Z,101.15
2023-02-08T16:37:33.351Z,95.95
2023-02-08T16:40:06.639Z,103.80
2023-02-08T16:42:42.570Z,98.65
2023-02-08T16:45:09.414Z,98.85
2023-02-08T16:47:43.170Z,99.75
2023-02-08T16:50:30.235Z,105.82
2023-02-08T16:53:01.270Z,99.60
2023-02-08T16:55:31.318Z,98.88
2023-02-08T16:57:59.178Z,97.18
2023-02-08T17:00:34.616Z,98.00
2023-02-08T17:03:01.700Z,98.70
2023-02-08T17:05:36.315Z,101.00
2023-02-08T17:08:06.771Z,98.53
2023-02-08T17:10:33.905Z,97.90
2023-02-08T17:13:18.656Z,98.93
2023-02-08T17:15:50.394Z,103.35
2023-02-08T17:18:17.113Z,100.03
2023-02-08T17:20:44.507Z,101.30
2023-02-08T17:23:11.594Z,100.95
2023-02-08T17:25:38.760Z,100.63
2023-02-08T17:28:08.372Z,100.60
2023-02-08T17:30:37.971Z,102.55
2023-02-08T17:33:06.657Z,99.07
2023-02-08T17:35:34.515Z,99.55
2023-02-08T17:38:02.062Z,101.95
2023-02-08T17:40:32.539Z,101.63
2023-02-08T17:43:00.487Z,99.90
2023-02-08T17:45:28.212Z,101.30
2023-02-08T17:47:56.108Z,103.38
2023-02-08T17:50:23.594Z,99.55
2023-02-08T17:52:50.313Z,100.15
2023-02-08T17:55:18.406Z,99.43
2023-02-08T17:57:45.738Z,102.03
2023-02-08T18:00:19.267Z,102.15
2023-02-08T18:02:48.375Z,100.72
2023-02-08T18:05:20.329Z,102.35
2023-02-08T18:07:47.069Z,97.45
2023-02-08T18:10:15.182Z,100.70
2023-02-08T18:12:42.800Z,103.78
2023-02-08T18:15:12.698Z,101.28
2023-02-08T18:17:39.938Z,103.85
2023-02-08T18:20:07.357Z,97.50
2023-02-08T18:22:34.289Z,99.47
2023-02-08T18:25:00.989Z,98.90
2023-02-08T18:27:27.764Z,96.90
2023-02-08T18:29:54.832Z,98.07
2023-02-08T18:32:22.418Z,98.57
2023-02-08T18:34:50.723Z,98.47
2023-02-08T18:37:17.440Z,100.45
2023-02-08T18:39:44.145Z,100.10
2023-02-08T18:42:11.749Z,102.07
2023-02-08T18:44:38.729Z,100.63
2023-02-08T18:47:07.589Z,102.10
2023-02-08T18:49:40.340Z,99.88
2023-02-08T18:52:09.172Z,99.03
2023-02-08T18:54:37.882Z,101.90
2023-02-08T18:57:06.137Z,100.00
2023-02-08T18:59:33.481Z,97.28
2023-02-08T19:02:01.595Z,99.60
2023-02-08T19:04:28.979Z,99.75
2023-02-08T19:06:55.690Z,100.05
2023-02-08T19:09:22.375Z,100.25
2023-02-08T19:11:49.464Z,101.53
2023-02-08T19:14:16.094Z,99.20
2023-02-08T19:16:43.155Z,99.80
2023-02-08T19:19:10.385Z,103.18
2023-02-08T19:21:37.177Z,100.05
2023-02-08T19:24:04.111Z,98.13
2023-02-08T19:26:33.693Z,100.28
2023-02-08T19:29:03.334Z,101.65
2023-02-08T19:31:30.778Z,101.03
2023-02-08T19:34:00.312Z,99.07
2023-02-08T19:36:35.958Z,98.15
2023-02-08T19:39:03.858Z,102.35
2023-02-08T19:41:39.975Z,101.70
2023-02-08T19:44:08.889Z,98.47
2023-02-08T19:46:38.726Z,104.68
2023-02-08T19:49:06.832Z,101.03
2023-02-08T19:51:36.920Z,99.78
2023-02-08T19:54:07.005Z,101.35
2023-02-08T19:56:34.263Z,101.55
2023-02-08T19:59:05.528Z,100.07
2023-02-08T20:01:33.439Z,100.80
2023-02-08T20:04:00.457Z,100.88
2023-02-08T20:06:30.677Z,99.15
2023-02-08T20:08:57.424Z,102.10
2023-02-08T20:11:29.517Z,103.35
2023-02-08T20:13:58.072Z,106.03
2023-02-08T20:16:25.538Z,104.65
2023-02-08T20:18:52.330Z,102.13
2023-02-08T20:21:19.085Z,104.03
2023-02-08T20:23:46.972Z,106.72
2023-02-08T20:26:19.832Z,100.93
2023-02-08T20:28:51.157Z,100.90
2023-02-08T20:31:19.620Z,98.72
2023-02-08T20:33:46.489Z,101.20
2023-02-08T20:36:16.295Z,100.22
2023-02-08T20:38:44.132Z,99.75
2023-02-08T20:41:14.186Z,100.50
2023-02-08T20:43:42.775Z,99.72
2023-02-08T20:46:15.393Z,99.50
2023-02-08T20:48:42.133Z,98.93
2023-02-08T20:51:12.201Z,98.20
2023-02-08T20:53:41.035Z,102.10
2023-02-08T20:56:20.596Z,102.10
2023-02-08T20:58:47.394Z,99.82
2023-02-08T21:01:19.751Z,100.97
2023-02-08T21:03:47.108Z,100.35
2023-02-08T21:06:26.330Z,105.95
2023-02-08T21:08:55.250Z,103.05
2023-02-08T21:11:25.312Z,99.72
2023-02-08T21:13:52.283Z,102.75
2023-02-08T21:16:19.847Z,99.35
2023-02-08T21:18:47.144Z,100.28
2023-02-08T21:21:15.169Z,99.75
2023-02-08T21:23:43.034Z,101.60
2023-02-08T21:26:13.235Z,101.35
2023-02-08T21:28:40.394Z,98.82
2023-02-08T21:31:10.693Z,99.88
2023-02-08T21:33:37.624Z,102.82
2023-02-08T21:36:10.198Z,116.65
2023-02-08T21:38:36.912Z,99.03
2023-02-08T21:41:14.083Z,99.70
2023-02-08T21:43:40.773Z,99.38
2023-02-08T21:46:08.851Z,107.47
2023-02-08T21:48:55.836Z,106.60
2023-02-08T21:51:42.992Z,106.22
2023-02-08T21:54:33.523Z,102.10
2023-02-08T21:57:02.448Z,103.57
2023-02-08T21:59:31.328Z,103.60
2023-02-08T22:01:57.974Z,103.13
2023-02-08T22:04:25.396Z,105.05
2023-02-08T22:06:52.364Z,107.80
2023-02-08T22:09:20.757Z,101.65
2023-02-08T22:11:50.403Z,102.82
2023-02-08T22:14:17.118Z,103.95
2023-02-08T22:16:43.925Z,105.55
2023-02-08T22:19:10.665Z,101.55
2023-02-08T22:21:37.549Z,104.35
2023-02-08T22:24:04.328Z,104.05
2023-02-08T22:26:30.979Z,104.53
2023-02-08T22:28:57.637Z,101.95
2023-02-08T22:31:24.678Z,106.68
2023-02-08T22:33:54.798Z,111.25
2023-02-08T22:36:21.797Z,102.97
2023-02-08T22:38:48.513Z,102.50
2023-02-08T22:41:16.560Z,101.40
2023-02-08T22:43:45.099Z,101.45
2023-02-08T22:46:11.876Z,106.47
2023-02-08T22:48:38.674Z,103.78
2023-02-08T22:51:07.049Z,103.22
2023-02-08T22:53:33.685Z,103.85
2023-02-08T22:56:00.680Z,100.55
2023-02-08T22:58:27.456Z,107.35
2023-02-08T23:00:54.213Z,103.32
2023-02-08T23:03:21.001Z,103.97
2023-02-08T23:05:49.361Z,102.55
2023-02-08T23:08:17.950Z,103.97
2023-02-08T23:10:45.616Z,102.03
2023-02-08T23:13:13.304Z,104.75
2023-02-08T23:15:43.082Z,101.90
2023-02-08T23:18:09.840Z,99.55
2023-02-08T23:20:40.889Z,103.75
2023-02-08T23:23:07.893Z,99.35
2023-02-08T23:25:34.754Z,100.65
2023-02-08T23:28:01.466Z,100.70
2023-02-08T23:30:28.100Z,100.28
2023-02-08T23:32:54.812Z,102.78
2023-02-08T23:35:21.694Z,102.50
2023-02-08T23:37:48.400Z,106.05
2023-02-08T23:40:15.112Z,106.97
2023-02-08T23:42:41.925Z,100.65
2023-02-08T23:45:08.921Z,104.00
2023-02-08T23:47:37.080Z,103.40
2023-02-08T23:50:03.911Z,104.07
2023-02-08T23:52:30.538Z,100.78
2023-02-08T23:54:57.160Z,105.18
2023-02-08T23:57:23.821Z,108.95
2023-02-08T23:59:50.519Z,104.03
